sensor_id;sensor_type;location;lat;lon;timestamp;temperature;humidity
67868;SHT31;54672;46.096;14.470;2022-12-18T00:01:29;0.10;99.99
67868;SHT31;54672;46.096;14.470;2022-12-18T00:03:57;0.11;99.99
67868;SHT31;54672;46.096;14.470;2022-12-18T00:06:23;0.10;99.99
67868;SHT31;54672;46.096;14.470;2022-12-18T00:08:49;0.03;99.99
67868;SHT31;54672;46.096;14.470;2022-12-18T00:11:17;0.06;99.99
67868;SHT31;54672;46.096;14.470;2022-12-18T00:13:43;0.04;99.99
67868;SHT31;54672;46.096;14.470;2022-12-18T00:16:12;0.06;99.99
67868;SHT31;54672;46.096;14.470;2022-12-18T00:18:38;0.06;99.99
67868;SHT31;54672;46.096;14.470;2022-12-18T00:21:05;0.04;99.99
67868;SHT31;54672;46.096;14.470;2022-12-18T00:23:32;0.03;99.99
67868;SHT31;54672;46.096;14.470;2022-12-18T00:26:03;0.04;99.99
67868;SHT31;54672;46.096;14.470;2022-12-18T00:28:29;0.04;99.99
67868;SHT31;54672;46.096;14.470;2022-12-18T00:31:08;0.10;99.99
67868;SHT31;54672;46.096;14.470;2022-12-18T00:33:35;0.06;99.99
67868;SHT31;54672;46.096;14.470;2022-12-18T00:36:05;0.06;99.99
67868;SHT31;54672;46.096;14.470;2022-12-18T00:38:31;0.07;99.99
67868;SHT31;54672;46.096;14.470;2022-12-18T00:40:57;0.04;99.99
67868;SHT31;54672;46.096;14.470;2022-12-18T00:43:23;0.00;99.99
67868;SHT31;54672;46.096;14.470;2022-12-18T00:45:48;-0.03;99.99
67868;SHT31;54672;46.096;14.470;2022-12-18T00:48:14;-0.01;99.99
67868;SHT31;54672;46.096;14.470;2022-12-18T00:50:39;-0.03;99.99
67868;SHT31;54672;46.096;14.470;2022-12-18T00:53:05;-0.01;99.99
67868;SHT31;54672;46.096;14.470;2022-12-18T00:55:31;-0.01;99.99
67868;SHT31;54672;46.096;14.470;2022-12-18T00:57:57;0.00;99.99
67868;SHT31;54672;46.096;14.470;2022-12-18T01:00:22;0.00;99.99
67868;SHT31;54672;46.096;14.470;2022-12-18T01:02:47;-0.14;99.99
67868;SHT31;54672;46.096;14.470;2022-12-18T01:05:14;-0.15;99.99
67868;SHT31;54672;46.096;14.470;2022-12-18T01:07:40;-0.20;99.99
67868;SHT31;54672;46.096;14.470;2022-12-18T01:10:06;-0.22;99.99
67868;SHT31;54672;46.096;14.470;2022-12-18T01:12:32;-0.27;99.99
67868;SHT31;54672;46.096;14.470;2022-12-18T01:14:57;-0.31;99.99
67868;SHT31;54672;46.096;14.470;2022-12-18T01:17:23;-0.32;99.99
67868;SHT31;54672;46.096;14.470;2022-12-18T01:19:48;-0.38;99.99
67868;SHT31;54672;46.096;14.470;2022-12-18T01:22:13;-0.42;99.99
67868;SHT31;54672;46.096;14.470;2022-12-18T01:24:39;-0.45;99.99
67868;SHT31;54672;46.096;14.470;2022-12-18T01:27:04;-0.44;99.99
67868;SHT31;54672;46.096;14.470;2022-12-18T01:29:30;-0.41;99.99
67868;SHT31;54672;46.096;14.470;2022-12-18T01:31:56;-0.41;99.99
67868;SHT31;54672;46.096;14.470;2022-12-18T01:34:22;-0.49;99.99
67868;SHT31;54672;46.096;14.470;2022-12-18T01:36:47;-0.55;99.99
67868;SHT31;54672;46.096;14.470;2022-12-18T01:39:14;-0.62;99.99
67868;SHT31;54672;46.096;14.470;2022-12-18T01:41:40;-0.68;99.99
67868;SHT31;54672;46.096;14.470;2022-12-18T01:52:34;-0.66;99.99
67868;SHT31;54672;46.096;14.470;2022-12-18T01:55:02;-0.68;99.99
67868;SHT31;54672;46.096;14.470;2022-12-18T01:57:28;-0.58;99.99
67868;SHT31;54672;46.096;14.470;2022-12-18T01:59:57;-0.61;99.99
67868;SHT31;54672;46.096;14.470;2022-12-18T02:02:26;-0.66;99.99
67868;SHT31;54672;46.096;14.470;2022-12-18T02:04:52;-0.72;99.99
67868;SHT31;54672;46.096;14.470;2022-12-18T02:08:07;-0.76;99.99
67868;SHT31;54672;46.096;14.470;2022-12-18T02:10:30;-0.78;99.99
67868;SHT31;54672;46.096;14.470;2022-12-18T02:13:06;-0.70;99.99
67868;SHT31;54672;46.096;14.470;2022-12-18T02:15:47;-0.78;99.99
67868;SHT31;54672;46.096;14.470;2022-12-18T02:18:22;-0.70;99.99
67868;SHT31;54672;46.096;14.470;2022-12-18T02:26:15;-0.82;99.99
67868;SHT31;54672;46.096;14.470;2022-12-18T02:28:47;-0.86;99.99
67868;SHT31;54672;46.096;14.470;2022-12-18T02:31:18;-0.80;99.99
67868;SHT31;54672;46.096;14.470;2022-12-18T02:33:45;-0.72;99.99
67868;SHT31;54672;46.096;14.470;2022-12-18T02:36:12;-0.65;99.99
67868;SHT31;54672;46.096;14.470;2022-12-18T02:38:40;-0.66;99.99
67868;SHT31;54672;46.096;14.470;2022-12-18T02:41:07;-0.69;99.99
67868;SHT31;54672;46.096;14.470;2022-12-18T02:43:32;-0.69;99.99
67868;SHT31;54672;46.096;14.470;2022-12-18T02:46:00;-0.72;99.99
67868;SHT31;54672;46.096;14.470;2022-12-18T02:48:29;-0.79;99.99
67868;SHT31;54672;46.096;14.470;2022-12-18T02:50:59;-0.80;99.99
67868;SHT31;54672;46.096;14.470;2022-12-18T02:53:44;-0.89;99.99
67868;SHT31;54672;46.096;14.470;2022-12-18T02:56:17;-0.80;99.99
67868;SHT31;54672;46.096;14.470;2022-12-18T03:01:30;-0.99;99.99
67868;SHT31;54672;46.096;14.470;2022-12-18T03:04:04;-1.23;99.99
67868;SHT31;54672;46.096;14.470;2022-12-18T03:06:37;-1.13;99.99
67868;SHT31;54672;46.096;14.470;2022-12-18T03:09:12;-1.11;99.99
67868;SHT31;54672;46.096;14.470;2022-12-18T03:11:41;-1.19;99.99
67868;SHT31;54672;46.096;14.470;2022-12-18T03:14:30;-1.10;99.99
67868;SHT31;54672;46.096;14.470;2022-12-18T03:17:00;-1.10;99.99
67868;SHT31;54672;46.096;14.470;2022-12-18T03:19:28;-1.16;99.99
67868;SHT31;54672;46.096;14.470;2022-12-18T03:21:56;-1.16;99.99
67868;SHT31;54672;46.096;14.470;2022-12-18T03:24:24;-1.13;99.99
67868;SHT31;54672;46.096;14.470;2022-12-18T03:26:54;-1.13;99.99
67868;SHT31;54672;46.096;14.470;2022-12-18T03:29:26;-1.17;99.99
67868;SHT31;54672;46.096;14.470;2022-12-18T03:31:58;-1.21;99.99
67868;SHT31;54672;46.096;14.470;2022-12-18T03:34:29;-1.31;99.99
67868;SHT31;54672;46.096;14.470;2022-12-18T03:36:56;-1.27;99.99
67868;SHT31;54672;46.096;14.470;2022-12-18T03:39:23;-1.27;99.99
67868;SHT31;54672;46.096;14.470;2022-12-18T03:42:05;-1.27;99.99
67868;SHT31;54672;46.096;14.470;2022-12-18T03:47:38;-1.40;99.99
67868;SHT31;54672;46.096;14.470;2022-12-18T03:52:57;-1.48;99.99
67868;SHT31;54672;46.096;14.470;2022-12-18T03:55:24;-1.57;99.99
67868;SHT31;54672;46.096;14.470;2022-12-18T03:57:53;-1.58;99.99
67868;SHT31;54672;46.096;14.470;2022-12-18T04:00:19;-1.55;99.99
67868;SHT31;54672;46.096;14.470;2022-12-18T04:02:50;-1.40;99.99
67868;SHT31;54672;46.096;14.470;2022-12-18T04:05:17;-1.43;99.99
67868;SHT31;54672;46.096;14.470;2022-12-18T04:07:45;-1.47;99.99
67868;SHT31;54672;46.096;14.470;2022-12-18T04:10:12;-1.47;99.99
67868;SHT31;54672;46.096;14.470;2022-12-18T04:12:38;-1.47;99.99
67868;SHT31;54672;46.096;14.470;2022-12-18T04:15:04;-1.51;99.99
67868;SHT31;54672;46.096;14.470;2022-12-18T04:17:30;-1.46;99.99
67868;SHT31;54672;46.096;14.470;2022-12-18T04:19:55;-1.33;99.99
67868;SHT31;54672;46.096;14.470;2022-12-18T04:22:21;-1.50;99.99
67868;SHT31;54672;46.096;14.470;2022-12-18T04:24:46;-1.46;99.99
67868;SHT31;54672;46.096;14.470;2022-12-18T04:27:12;-1.39;99.99
67868;SHT31;54672;46.096;14.470;2022-12-18T04:29:37;-1.34;99.99
67868;SHT31;54672;46.096;14.470;2022-12-18T04:32:03;-1.44;99.99
67868;SHT31;54672;46.096;14.470;2022-12-18T04:34:28;-1.52;99.99
67868;SHT31;54672;46.096;14.470;2022-12-18T04:36:53;-1.64;99.99
67868;SHT31;54672;46.096;14.470;2022-12-18T04:39:19;-1.46;99.99
67868;SHT31;54672;46.096;14.470;2022-12-18T04:41:44;-1.58;99.99
67868;SHT31;54672;46.096;14.470;2022-12-18T04:44:10;-1.54;99.99
67868;SHT31;54672;46.096;14.470;2022-12-18T04:46:35;-1.57;99.99
67868;SHT31;54672;46.096;14.470;2022-12-18T04:49:00;-1.43;99.99
67868;SHT31;54672;46.096;14.470;2022-12-18T04:51:26;-1.37;99.99
67868;SHT31;54672;46.096;14.470;2022-12-18T04:53:51;-1.34;99.99
67868;SHT31;54672;46.096;14.470;2022-12-18T04:56:17;-1.50;99.99
67868;SHT31;54672;46.096;14.470;2022-12-18T04:58:44;-1.46;99.99
67868;SHT31;54672;46.096;14.470;2022-12-18T05:01:11;-1.58;99.99
67868;SHT31;54672;46.096;14.470;2022-12-18T05:03:37;-1.29;99.99
67868;SHT31;54672;46.096;14.470;2022-12-18T05:06:03;-1.41;99.99
67868;SHT31;54672;46.096;14.470;2022-12-18T05:08:29;-1.13;99.99
67868;SHT31;54672;46.096;14.470;2022-12-18T05:11:02;-1.16;99.99
67868;SHT31;54672;46.096;14.470;2022-12-18T05:13:28;-1.24;99.99
67868;SHT31;54672;46.096;14.470;2022-12-18T05:15:54;-1.36;99.99
67868;SHT31;54672;46.096;14.470;2022-12-18T05:18:21;-1.29;99.99
67868;SHT31;54672;46.096;14.470;2022-12-18T05:20:46;-1.23;99.99
67868;SHT31;54672;46.096;14.470;2022-12-18T05:23:12;-1.17;99.99
67868;SHT31;54672;46.096;14.470;2022-12-18T05:25:38;-1.09;99.99
67868;SHT31;54672;46.096;14.470;2022-12-18T05:28:03;-1.13;99.99
67868;SHT31;54672;46.096;14.470;2022-12-18T05:30:29;-1.17;99.99
67868;SHT31;54672;46.096;14.470;2022-12-18T05:32:54;-1.20;99.99
67868;SHT31;54672;46.096;14.470;2022-12-18T05:35:19;-1.20;99.99
67868;SHT31;54672;46.096;14.470;2022-12-18T05:37:45;-1.19;99.99
67868;SHT31;54672;46.096;14.470;2022-12-18T05:40:11;-1.13;99.99
67868;SHT31;54672;46.096;14.470;2022-12-18T05:42:36;-1.13;99.99
67868;SHT31;54672;46.096;14.470;2022-12-18T05:45:02;-1.07;99.99
67868;SHT31;54672;46.096;14.470;2022-12-18T05:47:27;-1.16;99.99
67868;SHT31;54672;46.096;14.470;2022-12-18T05:49:53;-1.09;99.99
67868;SHT31;54672;46.096;14.470;2022-12-18T05:52:19;-1.17;99.99
67868;SHT31;54672;46.096;14.470;2022-12-18T05:54:44;-1.30;99.99
67868;SHT31;54672;46.096;14.470;2022-12-18T05:57:10;-1.40;99.99
67868;SHT31;54672;46.096;14.470;2022-12-18T05:59:35;-1.39;99.99
67868;SHT31;54672;46.096;14.470;2022-12-18T06:02:01;-1.39;99.99
67868;SHT31;54672;46.096;14.470;2022-12-18T06:04:27;-1.33;99.99
67868;SHT31;54672;46.096;14.470;2022-12-18T06:06:54;-1.31;99.99
67868;SHT31;54672;46.096;14.470;2022-12-18T06:09:20;-1.41;99.99
67868;SHT31;54672;46.096;14.470;2022-12-18T06:11:45;-1.47;99.99
67868;SHT31;54672;46.096;14.470;2022-12-18T06:14:11;-1.46;99.99
67868;SHT31;54672;46.096;14.470;2022-12-18T06:16:36;-1.43;99.99
67868;SHT31;54672;46.096;14.470;2022-12-18T06:19:03;-1.40;99.99
67868;SHT31;54672;46.096;14.470;2022-12-18T06:21:30;-1.26;99.99
67868;SHT31;54672;46.096;14.470;2022-12-18T06:23:55;-1.17;99.99
67868;SHT31;54672;46.096;14.470;2022-12-18T06:26:21;-1.20;99.99
67868;SHT31;54672;46.096;14.470;2022-12-18T06:28:47;-1.34;99.99
67868;SHT31;54672;46.096;14.470;2022-12-18T06:31:12;-1.41;99.99
67868;SHT31;54672;46.096;14.470;2022-12-18T06:33:38;-1.40;99.99
67868;SHT31;54672;46.096;14.470;2022-12-18T06:36:09;-1.26;99.99
67868;SHT31;54672;46.096;14.470;2022-12-18T06:38:37;-1.29;99.99
67868;SHT31;54672;46.096;14.470;2022-12-18T06:41:09;-1.37;99.99
67868;SHT31;54672;46.096;14.470;2022-12-18T06:43:35;-1.41;99.99
67868;SHT31;54672;46.096;14.470;2022-12-18T06:46:02;-1.43;99.99
67868;SHT31;54672;46.096;14.470;2022-12-18T06:48:27;-1.41;99.99
67868;SHT31;54672;46.096;14.470;2022-12-18T06:50:53;-1.41;99.99
67868;SHT31;54672;46.096;14.470;2022-12-18T06:53:18;-1.39;99.99
67868;SHT31;54672;46.096;14.470;2022-12-18T06:55:43;-1.34;99.99
67868;SHT31;54672;46.096;14.470;2022-12-18T06:58:09;-1.26;99.99
67868;SHT31;54672;46.096;14.470;2022-12-18T07:00:34;-1.20;99.99
67868;SHT31;54672;46.096;14.470;2022-12-18T07:03:00;-1.10;99.99
67868;SHT31;54672;46.096;14.470;2022-12-18T07:05:25;-0.97;99.99
67868;SHT31;54672;46.096;14.470;2022-12-18T07:07:51;-0.86;99.99
67868;SHT31;54672;46.096;14.470;2022-12-18T07:10:16;-0.82;99.99
67868;SHT31;54672;46.096;14.470;2022-12-18T07:12:41;-0.72;99.99
67868;SHT31;54672;46.096;14.470;2022-12-18T07:15:07;-0.70;99.99
67868;SHT31;54672;46.096;14.470;2022-12-18T07:17:33;-0.65;99.99
67868;SHT31;54672;46.096;14.470;2022-12-18T07:19:58;-0.64;99.99
67868;SHT31;54672;46.096;14.470;2022-12-18T07:22:25;-0.51;99.99
67868;SHT31;54672;46.096;14.470;2022-12-18T07:24:50;-0.41;99.99
67868;SHT31;54672;46.096;14.470;2022-12-18T07:27:16;-0.35;99.99
67868;SHT31;54672;46.096;14.470;2022-12-18T07:29:41;-0.31;99.99
67868;SHT31;54672;46.096;14.470;2022-12-18T07:32:07;-0.39;99.99
67868;SHT31;54672;46.096;14.470;2022-12-18T07:34:33;-0.38;99.99
67868;SHT31;54672;46.096;14.470;2022-12-18T07:36:59;-0.31;99.99
67868;SHT31;54672;46.096;14.470;2022-12-18T07:39:24;-0.38;99.99
67868;SHT31;54672;46.096;14.470;2022-12-18T07:41:50;-0.42;99.99
67868;SHT31;54672;46.096;14.470;2022-12-18T07:44:34;-0.22;99.99
67868;SHT31;54672;46.096;14.470;2022-12-18T07:46:59;-0.06;99.99
67868;SHT31;54672;46.096;14.470;2022-12-18T07:49:24;-0.21;99.99
67868;SHT31;54672;46.096;14.470;2022-12-18T07:51:50;-0.22;99.99
67868;SHT31;54672;46.096;14.470;2022-12-18T07:54:15;-0.22;99.99
67868;SHT31;54672;46.096;14.470;2022-12-18T07:56:41;-0.20;99.99
67868;SHT31;54672;46.096;14.470;2022-12-18T07:59:06;-0.13;99.99
67868;SHT31;54672;46.096;14.470;2022-12-18T08:01:33;-0.03;99.99
67868;SHT31;54672;46.096;14.470;2022-12-18T08:03:58;0.01;99.99
67868;SHT31;54672;46.096;14.470;2022-12-18T08:06:24;0.18;99.99
67868;SHT31;54672;46.096;14.470;2022-12-18T08:08:53;0.61;98.71
67868;SHT31;54672;46.096;14.470;2022-12-18T08:11:19;1.09;97.40
67868;SHT31;54672;46.096;14.470;2022-12-18T08:13:44;1.09;97.22
67868;SHT31;54672;46.096;14.470;2022-12-18T08:16:09;1.48;97.07
67868;SHT31;54672;46.096;14.470;2022-12-18T08:18:36;1.44;95.50
67868;SHT31;54672;46.096;14.470;2022-12-18T08:21:13;1.09;97.61
67868;SHT31;54672;46.096;14.470;2022-12-18T08:23:40;0.96;97.49
67868;SHT31;54672;46.096;14.470;2022-12-18T08:26:05;0.96;98.15
67868;SHT31;54672;46.096;14.470;2022-12-18T08:28:31;1.07;97.70
67868;SHT31;54672;46.096;14.470;2022-12-18T08:30:57;1.85;94.54
67868;SHT31;54672;46.096;14.470;2022-12-18T08:33:22;1.98;93.20
67868;SHT31;54672;46.096;14.470;2022-12-18T08:35:47;2.01;92.19
67868;SHT31;54672;46.096;14.470;2022-12-18T08:38:13;2.19;92.78
67868;SHT31;54672;46.096;14.470;2022-12-18T08:40:38;2.28;93.26
67868;SHT31;54672;46.096;14.470;2022-12-18T08:43:04;2.29;93.74
67868;SHT31;54672;46.096;14.470;2022-12-18T08:45:48;2.47;91.92
67868;SHT31;54672;46.096;14.470;2022-12-18T08:48:13;2.40;91.79
67868;SHT31;54672;46.096;14.470;2022-12-18T08:50:39;2.53;90.34
67868;SHT31;54672;46.096;14.470;2022-12-18T08:53:04;2.65;89.75
67868;SHT31;54672;46.096;14.470;2022-12-18T08:55:30;2.50;88.70
67868;SHT31;54672;46.096;14.470;2022-12-18T08:57:55;2.44;88.97
67868;SHT31;54672;46.096;14.470;2022-12-18T09:00:21;2.40;89.59
67868;SHT31;54672;46.096;14.470;2022-12-18T09:02:46;1.82;90.74
67868;SHT31;54672;46.096;14.470;2022-12-18T09:05:12;2.26;90.48
67868;SHT31;54672;46.096;14.470;2022-12-18T09:07:37;2.54;90.44
67868;SHT31;54672;46.096;14.470;2022-12-18T09:10:03;2.42;90.16
67868;SHT31;54672;46.096;14.470;2022-12-18T09:12:28;2.58;90.42
67868;SHT31;54672;46.096;14.470;2022-12-18T09:14:54;2.64;90.05
67868;SHT31;54672;46.096;14.470;2022-12-18T09:17:19;2.65;88.70
67868;SHT31;54672;46.096;14.470;2022-12-18T09:19:45;2.70;88.05
67868;SHT31;54672;46.096;14.470;2022-12-18T09:22:10;2.61;87.27
67868;SHT31;54672;46.096;14.470;2022-12-18T09:24:36;2.63;88.14
67868;SHT31;54672;46.096;14.470;2022-12-18T09:27:01;2.60;88.18
67868;SHT31;54672;46.096;14.470;2022-12-18T09:29:27;2.57;87.83
67868;SHT31;54672;46.096;14.470;2022-12-18T09:31:52;2.61;88.76
67868;SHT31;54672;46.096;14.470;2022-12-18T09:34:18;2.77;89.55
67868;SHT31;54672;46.096;14.470;2022-12-18T09:36:45;2.85;85.44
67868;SHT31;54672;46.096;14.470;2022-12-18T09:39:11;2.77;85.29
67868;SHT31;54672;46.096;14.470;2022-12-18T09:46:39;2.64;86.63
67868;SHT31;54672;46.096;14.470;2022-12-18T09:49:12;2.76;86.87
67868;SHT31;54672;46.096;14.470;2022-12-18T09:54:33;2.85;83.00
67868;SHT31;54672;46.096;14.470;2022-12-18T09:57:00;2.76;84.45
67868;SHT31;54672;46.096;14.470;2022-12-18T09:59:36;2.91;84.59
67868;SHT31;54672;46.096;14.470;2022-12-18T10:02:17;2.94;84.62
67868;SHT31;54672;46.096;14.470;2022-12-18T10:04:43;2.91;81.39
67868;SHT31;54672;46.096;14.470;2022-12-18T10:07:18;2.91;79.45
67868;SHT31;54672;46.096;14.470;2022-12-18T10:09:58;2.79;80.20
67868;SHT31;54672;46.096;14.470;2022-12-18T10:12:32;2.65;79.58
67868;SHT31;54672;46.096;14.470;2022-12-18T10:17:47;2.28;78.98
67868;SHT31;54672;46.096;14.470;2022-12-18T10:20:32;2.47;80.29
67868;SHT31;54672;46.096;14.470;2022-12-18T10:23:51;2.60;79.12
67868;SHT31;54672;46.096;14.470;2022-12-18T10:26:03;2.52;78.31
67868;SHT31;54672;46.096;14.470;2022-12-18T10:28:30;2.47;79.15
67868;SHT31;54672;46.096;14.470;2022-12-18T10:30:56;2.40;79.51
67868;SHT31;54672;46.096;14.470;2022-12-18T10:33:28;2.44;78.67
67868;SHT31;54672;46.096;14.470;2022-12-18T10:35:54;2.46;79.64
67868;SHT31;54672;46.096;14.470;2022-12-18T10:38:25;2.43;78.77
67868;SHT31;54672;46.096;14.470;2022-12-18T10:43:39;2.39;80.25
67868;SHT31;54672;46.096;14.470;2022-12-18T10:48:35;2.53;80.72
67868;SHT31;54672;46.096;14.470;2022-12-18T10:51:02;2.58;76.06
67868;SHT31;54672;46.096;14.470;2022-12-18T10:53:30;2.61;75.29
67868;SHT31;54672;46.096;14.470;2022-12-18T10:55:58;2.52;75.80
67868;SHT31;54672;46.096;14.470;2022-12-18T10:58:33;2.50;75.71
67868;SHT31;54672;46.096;14.470;2022-12-18T11:01:12;2.44;75.19
67868;SHT31;54672;46.096;14.470;2022-12-18T11:04:00;2.57;76.51
67868;SHT31;54672;46.096;14.470;2022-12-18T11:06:26;2.53;74.92
67868;SHT31;54672;46.096;14.470;2022-12-18T11:09:00;2.49;74.77
67868;SHT31;54672;46.096;14.470;2022-12-18T11:11:26;2.56;73.38
67868;SHT31;54672;46.096;14.470;2022-12-18T11:16:29;2.60;74.30
67868;SHT31;54672;46.096;14.470;2022-12-18T11:19:20;2.49;74.34
67868;SHT31;54672;46.096;14.470;2022-12-18T11:21:47;2.65;74.12
67868;SHT31;54672;46.096;14.470;2022-12-18T11:24:27;2.77;75.28
67868;SHT31;54672;46.096;14.470;2022-12-18T11:26:54;2.83;74.09
67868;SHT31;54672;46.096;14.470;2022-12-18T11:29:27;2.61;74.05
67868;SHT31;54672;46.096;14.470;2022-12-18T11:32:20;2.58;73.61
67868;SHT31;54672;46.096;14.470;2022-12-18T11:34:49;2.61;74.95
67868;SHT31;54672;46.096;14.470;2022-12-18T11:37:17;2.67;75.91
67868;SHT31;54672;46.096;14.470;2022-12-18T11:39:49;2.61;75.31
67868;SHT31;54672;46.096;14.470;2022-12-18T11:42:32;2.46;75.37
67868;SHT31;54672;46.096;14.470;2022-12-18T11:50:19;2.53;76.16
67868;SHT31;54672;46.096;14.470;2022-12-18T11:52:45;2.53;75.51
67868;SHT31;54672;46.096;14.470;2022-12-18T11:55:14;2.46;76.37
67868;SHT31;54672;46.096;14.470;2022-12-18T11:57:47;2.47;76.50
67868;SHT31;54672;46.096;14.470;2022-12-18T12:00:19;2.40;76.66
67868;SHT31;54672;46.096;14.470;2022-12-18T12:08:09;2.18;77.11
67868;SHT31;54672;46.096;14.470;2022-12-18T12:11:09;2.23;78.39
67868;SHT31;54672;46.096;14.470;2022-12-18T12:14:01;2.18;78.32
67868;SHT31;54672;46.096;14.470;2022-12-18T12:21:44;2.18;78.44
67868;SHT31;54672;46.096;14.470;2022-12-18T12:24:19;2.13;76.30
67868;SHT31;54672;46.096;14.470;2022-12-18T12:30:00;2.13;77.19
67868;SHT31;54672;46.096;14.470;2022-12-18T12:35:15;2.05;76.83
67868;SHT31;54672;46.096;14.470;2022-12-18T12:40:35;2.09;75.88
67868;SHT31;54672;46.096;14.470;2022-12-18T12:43:12;2.25;76.03
67868;SHT31;54672;46.096;14.470;2022-12-18T12:46:08;2.23;76.66
67868;SHT31;54672;46.096;14.470;2022-12-18T12:48:46;2.23;75.34
67868;SHT31;54672;46.096;14.470;2022-12-18T12:51:15;2.19;77.26
67868;SHT31;54672;46.096;14.470;2022-12-18T12:53:41;2.22;77.21
67868;SHT31;54672;46.096;14.470;2022-12-18T12:56:10;2.15;77.60
67868;SHT31;54672;46.096;14.470;2022-12-18T13:07:05;2.28;75.77
67868;SHT31;54672;46.096;14.470;2022-12-18T13:09:33;2.22;76.76
67868;SHT31;54672;46.096;14.470;2022-12-18T13:12:10;2.12;76.64
67868;SHT31;54672;46.096;14.470;2022-12-18T13:15:12;1.99;76.85
67868;SHT31;54672;46.096;14.470;2022-12-18T13:17:38;1.97;77.25
67868;SHT31;54672;46.096;14.470;2022-12-18T13:20:12;1.85;76.58
67868;SHT31;54672;46.096;14.470;2022-12-18T13:22:47;1.68;76.55
67868;SHT31;54672;46.096;14.470;2022-12-18T13:25:38;1.68;77.48
67868;SHT31;54672;46.096;14.470;2022-12-18T13:28:05;1.71;78.08
67868;SHT31;54672;46.096;14.470;2022-12-18T13:35:40;1.84;77.47
67868;SHT31;54672;46.096;14.470;2022-12-18T13:46:03;1.81;78.17
67868;SHT31;54672;46.096;14.470;2022-12-18T13:48:31;1.78;78.51
67868;SHT31;54672;46.096;14.470;2022-12-18T13:51:04;1.81;77.90
67868;SHT31;54672;46.096;14.470;2022-12-18T13:53:38;1.70;76.62
67868;SHT31;54672;46.096;14.470;2022-12-18T13:56:05;1.55;76.81
67868;SHT31;54672;46.096;14.470;2022-12-18T13:58:31;1.53;77.96
67868;SHT31;54672;46.096;14.470;2022-12-18T14:00:56;1.54;78.74
67868;SHT31;54672;46.096;14.470;2022-12-18T14:03:26;1.64;77.93
67868;SHT31;54672;46.096;14.470;2022-12-18T14:05:54;1.71;78.72
67868;SHT31;54672;46.096;14.470;2022-12-18T14:08:21;1.62;78.10
67868;SHT31;54672;46.096;14.470;2022-12-18T14:10:48;1.70;78.30
67868;SHT31;54672;46.096;14.470;2022-12-18T14:13:36;1.67;78.74
67868;SHT31;54672;46.096;14.470;2022-12-18T14:16:04;1.74;78.31
67868;SHT31;54672;46.096;14.470;2022-12-18T14:18:53;1.71;79.35
67868;SHT31;54672;46.096;14.470;2022-12-18T14:21:25;1.68;78.52
67868;SHT31;54672;46.096;14.470;2022-12-18T14:24:11;1.68;78.66
67868;SHT31;54672;46.096;14.470;2022-12-18T14:26:37;1.64;78.98
67868;SHT31;54672;46.096;14.470;2022-12-18T14:29:29;1.64;79.00
67868;SHT31;54672;46.096;14.470;2022-12-18T14:32:11;1.77;77.43
67868;SHT31;54672;46.096;14.470;2022-12-18T14:34:39;1.78;77.47
67868;SHT31;54672;46.096;14.470;2022-12-18T14:37:07;1.70;77.67
67868;SHT31;54672;46.096;14.470;2022-12-18T14:39:34;1.62;77.91
67868;SHT31;54672;46.096;14.470;2022-12-18T14:41:59;1.54;78.89
67868;SHT31;54672;46.096;14.470;2022-12-18T14:44:25;1.44;78.81
67868;SHT31;54672;46.096;14.470;2022-12-18T14:46:50;1.37;79.49
67868;SHT31;54672;46.096;14.470;2022-12-18T14:49:33;1.33;79.61
67868;SHT31;54672;46.096;14.470;2022-12-18T14:52:03;1.29;80.21
67868;SHT31;54672;46.096;14.470;2022-12-18T14:54:29;1.23;80.82
67868;SHT31;54672;46.096;14.470;2022-12-18T14:57:06;1.24;80.55
67868;SHT31;54672;46.096;14.470;2022-12-18T14:59:37;1.23;80.18
67868;SHT31;54672;46.096;14.470;2022-12-18T15:02:22;1.22;80.78
67868;SHT31;54672;46.096;14.470;2022-12-18T15:05:20;1.20;80.82
67868;SHT31;54672;46.096;14.470;2022-12-18T15:07:52;1.22;80.59
67868;SHT31;54672;46.096;14.470;2022-12-18T15:10:23;1.23;79.31
67868;SHT31;54672;46.096;14.470;2022-12-18T15:13:05;1.17;80.32
67868;SHT31;54672;46.096;14.470;2022-12-18T15:20:39;1.10;78.59
67868;SHT31;54672;46.096;14.470;2022-12-18T15:23:12;1.12;79.74
67868;SHT31;54672;46.096;14.470;2022-12-18T15:25:37;1.16;79.31
67868;SHT31;54672;46.096;14.470;2022-12-18T15:28:04;1.19;80.29
67868;SHT31;54672;46.096;14.470;2022-12-18T15:31:19;1.20;80.43
67868;SHT31;54672;46.096;14.470;2022-12-18T15:36:17;1.17;80.84
67868;SHT31;54672;46.096;14.470;2022-12-18T15:38:46;1.16;80.16
67868;SHT31;54672;46.096;14.470;2022-12-18T15:41:17;1.06;80.97
67868;SHT31;54672;46.096;14.470;2022-12-18T15:43:44;1.07;81.80
67868;SHT31;54672;46.096;14.470;2022-12-18T15:46:14;1.09;81.32
67868;SHT31;54672;46.096;14.470;2022-12-18T15:48:46;1.06;81.51
67868;SHT31;54672;46.096;14.470;2022-12-18T15:53:39;1.17;79.55
67868;SHT31;54672;46.096;14.470;2022-12-18T15:56:10;1.10;80.18
67868;SHT31;54672;46.096;14.470;2022-12-18T15:58:53;1.13;79.82
67868;SHT31;54672;46.096;14.470;2022-12-18T16:01:20;1.07;79.83
67868;SHT31;54672;46.096;14.470;2022-12-18T16:03:45;1.02;80.18
67868;SHT31;54672;46.096;14.470;2022-12-18T16:06:11;0.99;80.50
67868;SHT31;54672;46.096;14.470;2022-12-18T16:08:36;0.92;80.76
67868;SHT31;54672;46.096;14.470;2022-12-18T16:11:02;0.91;79.26
67868;SHT31;54672;46.096;14.470;2022-12-18T16:13:27;0.89;79.39
67868;SHT31;54672;46.096;14.470;2022-12-18T16:15:53;0.89;79.93
67868;SHT31;54672;46.096;14.470;2022-12-18T16:18:18;0.93;80.59
67868;SHT31;54672;46.096;14.470;2022-12-18T16:20:44;0.99;80.50
67868;SHT31;54672;46.096;14.470;2022-12-18T16:23:09;0.96;80.90
67868;SHT31;54672;46.096;14.470;2022-12-18T16:25:35;0.89;81.66
67868;SHT31;54672;46.096;14.470;2022-12-18T16:28:00;0.83;82.25
67868;SHT31;54672;46.096;14.470;2022-12-18T16:30:30;0.73;80.20
67868;SHT31;54672;46.096;14.470;2022-12-18T16:32:57;0.72;80.43
67868;SHT31;54672;46.096;14.470;2022-12-18T16:35:23;0.75;80.55
67868;SHT31;54672;46.096;14.470;2022-12-18T16:37:49;0.95;80.52
67868;SHT31;54672;46.096;14.470;2022-12-18T16:40:16;1.02;81.07
67868;SHT31;54672;46.096;14.470;2022-12-18T16:42:43;1.04;81.57
67868;SHT31;54672;46.096;14.470;2022-12-18T16:45:11;0.89;82.04
67868;SHT31;54672;46.096;14.470;2022-12-18T16:47:38;0.95;81.77
67868;SHT31;54672;46.096;14.470;2022-12-18T16:50:04;0.91;82.68
67868;SHT31;54672;46.096;14.470;2022-12-18T16:52:30;0.92;82.44
67868;SHT31;54672;46.096;14.470;2022-12-18T16:54:56;0.89;83.14
67868;SHT31;54672;46.096;14.470;2022-12-18T16:57:21;0.82;83.05
67868;SHT31;54672;46.096;14.470;2022-12-18T16:59:47;0.92;81.20
67868;SHT31;54672;46.096;14.470;2022-12-18T17:02:15;1.02;81.16
67868;SHT31;54672;46.096;14.470;2022-12-18T17:04:41;1.02;80.59
67868;SHT31;54672;46.096;14.470;2022-12-18T17:07:07;1.06;80.17
67868;SHT31;54672;46.096;14.470;2022-12-18T17:09:33;1.07;80.57
67868;SHT31;54672;46.096;14.470;2022-12-18T17:11:58;1.07;79.80
67868;SHT31;54672;46.096;14.470;2022-12-18T17:14:25;1.06;79.59